Regen radar Meer informatie rain snow radar


Bezoek onze andere website:

Template documentation
and downloads

And another site



METAR rapporten vliegvelden

   
EBAW - Antwerp
Gewijzigd: 19-10-2018 02:50
Bewolking  
Bewolking  
   Wind: NO 11.1 km/h
Wind: NO 11.1 km/h
Temperatuur: 13°C
Dauwpunt: 8°C
Vochtigheid: 72%
Barometer: 1024 hPa
Bewolking: Bewolking
Zicht: meer dan 10 km
Bewolking: Bewolking 3800 ft
EBAW 190050Z AUTO 05006KT 9999 // OVC038/// 13/08 Q1024
EBLG - Li├Ęge
Gewijzigd: 19-10-2018 02:50
Nevel, Gedeeltelijk bewolkt  
Nevel, Gedeeltelijk bewolkt  
   Wind: NNO 9.3 km/h
Wind: NNO 9.3 km/h
Temperatuur: 10°C
Voelt als: 9°C
Dauwpunt: 9°C
Vochtigheid: 94%
Barometer: 1023 hPa
Bewolking: Gedeeltelijk bewolkt
Zicht: 4 km
Bewolking: Gedeeltelijk bewolkt
EBLG 190050Z 03005KT 3500 BR NSC 10/09 Q1023 TEMPO 2500 BR
EBCV - Mons/Bergen
Gewijzigd: 19-10-2018 02:55
Licht bewolkt  
Licht bewolkt  
   Wind: Noorden 5.6 km/h
Wind: Noorden 5.6 km/h
Temperatuur: 9°C
Voelt als: 8°C
Dauwpunt: 7°C
Vochtigheid: 87%
Barometer: 1024 hPa
Bewolking: Licht bewolkt
Zicht: meer dan 10 km
Bewolking: Licht bewolkt 2200 ft
EBCV 190055Z AUTO 01003KT 9999 FEW022/// 09/07 Q1024 BLU
EHBK - Maastricht
Gewijzigd: 19-10-2018 02:55
Bewolking  
Bewolking  
   Wind: NO 11.1 km/h
Wind: NO 11.1 km/h
Temperatuur: 12°C
Dauwpunt: 10°C
Vochtigheid: 88%
Barometer: 1023 hPa
Bewolking: Bewolking
Zicht: 7 km
Bewolking: Bewolking 900 ft
EHBK 190055Z AUTO 05006KT 7000 OVC009 12/10 Q1023
ELLX - Luxemburg
Gewijzigd: 19-10-2018 03:20
Helder  
Helder  
   Wind: NO 24.1 km/h
Wind: NO 24.1 km/h
Temperatuur: 11°C
Dauwpunt: 8°C
Vochtigheid: 82%
Barometer: 1022 hPa
Bewolking: Helder
Zicht: 8 km
Bewolking: Helder
ELLX 190120Z AUTO 05013KT 8000 NCD 11/08 Q1022 NOSIG
EBOS - Oostende
Gewijzigd: 19-10-2018 03:20
Grotendeels bewolkt  
Grotendeels bewolkt  
   Wind: ONO 13 km/h
Wind: ONO 13 km/h
Temperatuur: 12°C
Dauwpunt: 9°C
Vochtigheid: 82%
Barometer: 1025 hPa
Bewolking: Grotendeels bewolkt
Zicht: meer dan 10 km
Bewolking: Grotendeels bewolkt 3200 ft
EBOS 190120Z 07007KT 9999 BKN032 12/09 Q1025 NOSIG

Script ontwikkeld door  Saratoga-weather.org Aangepast voor de template door  Weerstation Leuven

U vindt ons ook hier:

Het Weer Aktueel

Weather Underground

Apparatuur in gebruik:

Weercomputer
apple

Webleverancier
weservit

apple

weservit